Terminal Aerodrome Forecast
Issued by NWS

Current Version | Previous Version | Graphics & Text | Print | Product List | Glossary On
Versions: 1 2 3 4 5 6 7 8 9 10 11 12 13 14 15 16 17 18 19 20
061
FTUS41 KPBZ 021136
TAFMGW
TAF
KMGW 021136Z 0212/0312 23003KT P6SM OVC035
     FM022200 26008KT P6SM OVC035
     FM030600 27005KT P6SM BKN020=

USA.gov is the U.S. government's official web portal to all federal, state and local government web resources and services.